Lockport, NY

3:33 AM EST on February 27, 2015 (GMT -0500)
APRSWXNET Lockport NY US | Change Station
CLOSE
Current Station
Personal Weather Station
Location: Lockport, NY
Elevation: 601 ft
Nearby Weather Stations

Elev 601 ft 43.11 °N, 78.70 °W | Updated 33 minutes ago

Overcast
Overcast
8 °F
Feels Like -1 °F
N
5
Wind Variable Wind from WNW
Gusts 8.0 mph

Today
High -- | Low -- °F
--% Chance of Precip.
Yesterday
High -- | Low -- °F
Precip. -- in
6:54 AM 6:01 PM
Waxing Gibbous, 66% visible
Pressure 30.31 in
Visibility 5.0 miles
Clouds Mostly Cloudy 1500 ft
Overcast 4200 ft
Windchill -1 °F
Dew Point 3 °F
Humidity 81%
Rainfall 0.00 in
Snow Depth Not available.
UV 0 out of 12
Pollen .40 out of 12
Air Quality Not available.
Flu Activity Not available.
SPECI KIAG 270814Z AUTO 31006KT 5SM -SN BKN015 OVC042 M14/M18 A3031 RMK AO2 SNB09 P0000 T11441183 $

More Conditions Fewer Conditions

Pressure 30.31 in
Visibility 5.0 miles
Clouds Mostly Cloudy 1500 ft
Overcast 4200 ft
Windchill -1 °F
Dew Point 3 °F
Humidity 81%
Rainfall 0.00 in
Snow Depth Not available.
UV 0 out of 12
Pollen .40 out of 12
Air Quality Not available.
Flu Activity Not available.
SPECI KIAG 270814Z AUTO 31006KT 5SM -SN BKN015 OVC042 M14/M18 A3031 RMK AO2 SNB09 P0000 T11441183 $

More Conditions Fewer Conditions

10-Day Weather Forecast

Almanac

Astronomy

Feb. 27, 2015 Rise Set
Actual Time
Civil Twilight
Nautical Twilight
Astronomical Twilight
Moon
Length of Visible Light
Length of Day
Tomorrow will be .
, % of the Moon is Illuminated

Today's Extremes

State Highs State Lows

Community

WunderPhotos

Upload Photos

1,800,649 photos uploaded!

WunderBlogs® & News

Nearby

Air Quality

  Air Quality AQ Index Pollutant
Not available.

Snow Depth

Station Depth Elevation

Earthquake Activity

City Distance Mag. Time & Date
Minimum magnitude displayed is 2.5.

Coastal Water Temperatures

Place Temperature

Nearby Weather Stations